»·PEaware :: ASA1243 KSAN-KSJC

ASA1243 :: KSAN-KSJC

FLIGHT INFORMATION

Flight Status: Arrived
Operator:
Alaska Airlines
More flights by this operator :: More flights under this callsign
Pilot: Terrell G. (18878)
Aircraft: BOEING 737-800
(B738)
More flights by this aircraft type
Origin: KSAN San Diego Intl-Lindbergh
United States
Destination: KSJC Mineta San Jose Intl
United States
More flights between these airports :: More routes between these airports
Route: PADRZ2 IKAYE TESEA SCTRR TROXX SILCN4
File this flight plan on PilotEdge
Remarks: RMK / NONE
Altitude:
(Current/Filed)
34,000ft
Speed:
(Current/Filed)
456kts
Departed: 13-Apr-18 05:01 PM
Arrived: 13-Apr-18 06:05 PM
Distance/Time
Traveled:
363nm/1:04
Distance/Time
To Go:
Arrived

Flight Plot

Page will automatically refresh every two minutes.

Flight plan parsing failed; only flown route is shown


Map Options




Map Legend


Flown Route
Filed Route
Departure Airport
Arrival Airport
Navaid (VOR, NDB)
Fix

Horizontal Profiles

Position Reports

Time Latitude Longitude Heading Altitude Ground
Speed
13-Apr-18 16:22 32.733325 -117.197860 257 22ft 0kts
13-Apr-18 16:23 32.733325 -117.197860 257 22ft 0kts
13-Apr-18 16:24 32.733325 -117.197860 257 22ft 0kts
13-Apr-18 16:25 32.733325 -117.197860 257 22ft 0kts
13-Apr-18 16:26 32.733325 -117.197860 257 22ft 0kts
13-Apr-18 16:27 32.733325 -117.197860 257 22ft 0kts
13-Apr-18 16:28 32.733325 -117.197860 257 22ft 0kts
13-Apr-18 16:29 32.733325 -117.197860 257 22ft 0kts
13-Apr-18 16:30 32.733325 -117.197860 257 22ft 0kts
13-Apr-18 16:31 32.733325 -117.197860 257 22ft 0kts
13-Apr-18 16:32 32.733325 -117.197860 257 22ft 0kts
13-Apr-18 16:33 32.733325 -117.197860 257 22ft 0kts
13-Apr-18 16:34 32.733325 -117.197860 257 22ft 0kts
13-Apr-18 16:35 32.733325 -117.197860 257 22ft 0kts
13-Apr-18 16:36 32.733325 -117.197860 257 22ft 0kts
13-Apr-18 16:37 32.733325 -117.197860 257 22ft 0kts
13-Apr-18 16:38 32.733325 -117.197860 257 22ft 0kts
13-Apr-18 16:39 32.733325 -117.197860 257 22ft 0kts
13-Apr-18 16:40 32.733325 -117.197860 257 22ft 0kts
13-Apr-18 16:41 32.733325 -117.197860 257 22ft 0kts
13-Apr-18 16:42 32.733325 -117.197860 257 22ft 0kts
13-Apr-18 16:43 32.733325 -117.197860 257 22ft 0kts
13-Apr-18 16:44 32.733325 -117.197860 257 22ft 0kts
13-Apr-18 16:45 32.733325 -117.197860 257 22ft 0kts
13-Apr-18 16:46 32.733325 -117.197860 257 22ft 0kts
13-Apr-18 16:47 32.733325 -117.197860 257 22ft 0kts
13-Apr-18 16:48 32.733325 -117.197860 257 22ft 0kts
13-Apr-18 16:49 32.733325 -117.197860 257 22ft 0kts
13-Apr-18 16:50 32.733356 -117.197685 257 22ft 0kts
13-Apr-18 16:51 32.733353 -117.197701 253 22ft 0kts
13-Apr-18 16:52 32.733353 -117.197701 253 22ft 0kts
13-Apr-18 16:53 32.733348 -117.197727 258 22ft 0kts
13-Apr-18 16:54 32.734313 -117.196885 105 22ft 14kts
13-Apr-18 16:55 32.733191 -117.192037 105 22ft 21kts
13-Apr-18 16:56 32.731984 -117.187003 105 22ft 18kts
13-Apr-18 16:57 32.730884 -117.182310 105 22ft 13kts
13-Apr-18 16:58 32.729963 -117.178420 105 22ft 10kts
13-Apr-18 16:59 32.730279 -117.175892 281 22ft 12kts
13-Apr-18 17:00 32.738541 -117.210709 288 1148ft 158kts
13-Apr-18 17:01 32.766847 -117.262886 307 2902ft 231kts
13-Apr-18 17:02 32.808580 -117.332636 309 5420ft 270kts
13-Apr-18 17:03 32.855366 -117.404705 310 8463ft 281kts
13-Apr-18 17:04 32.903200 -117.479052 310 11340ft 293kts
13-Apr-18 17:05 32.958454 -117.564925 309 12725ft 349kts
13-Apr-18 17:06 33.017957 -117.657911 309 15510ft 357kts
13-Apr-18 17:07 33.082996 -117.748627 319 18154ft 361kts
13-Apr-18 17:08 33.159903 -117.827243 320 20547ft 367kts
13-Apr-18 17:09 33.236079 -117.910249 316 22598ft 376kts
13-Apr-18 17:10 33.310285 -118.000118 316 24400ft 382kts
13-Apr-18 17:11 33.385861 -118.091191 316 26269ft 390kts
13-Apr-18 17:12 33.462976 -118.183806 317 27811ft 394kts
13-Apr-18 17:13 33.540673 -118.277030 316 29297ft 393kts
13-Apr-18 17:14 33.616989 -118.368984 316 30928ft 388kts
13-Apr-18 17:15 33.692954 -118.460810 316 32347ft 385kts
13-Apr-18 17:16 33.768115 -118.551926 316 33614ft 383kts
13-Apr-18 17:17 33.843387 -118.643426 316 34239ft 392kts
13-Apr-18 17:18 33.920337 -118.737176 316 34238ft 392kts
13-Apr-18 17:19 33.996726 -118.830334 316 34246ft 391kts
13-Apr-18 17:20 34.073050 -118.924070 316 34251ft 390kts
13-Apr-18 17:21 34.149208 -119.017689 316 34253ft 391kts
13-Apr-18 17:22 34.226777 -119.110012 316 34258ft 393kts
13-Apr-18 17:23 34.304649 -119.203127 316 34265ft 393kts
13-Apr-18 17:24 34.382503 -119.296506 316 34266ft 394kts
13-Apr-18 17:25 34.460645 -119.389896 316 34279ft 395kts
13-Apr-18 17:26 34.538905 -119.483984 316 34281ft 395kts
13-Apr-18 17:27 34.616736 -119.577925 316 34282ft 396kts
13-Apr-18 17:28 34.694709 -119.672340 316 34286ft 395kts
13-Apr-18 17:29 34.772408 -119.766700 316 34289ft 395kts
13-Apr-18 17:30 34.849803 -119.860964 316 34292ft 393kts
13-Apr-18 17:31 34.927362 -119.955708 316 34287ft 394kts
13-Apr-18 17:32 35.004736 -120.050173 315 34306ft 394kts
13-Apr-18 17:33 35.082096 -120.145386 315 34315ft 394kts
13-Apr-18 17:34 35.159142 -120.240418 316 34314ft 394kts
13-Apr-18 17:35 35.245054 -120.322882 322 34339ft 393kts
13-Apr-18 17:36 35.332870 -120.403198 322 34334ft 393kts
13-Apr-18 17:37 35.420134 -120.483492 322 34347ft 393kts
13-Apr-18 17:38 35.507273 -120.563900 322 34351ft 393kts
13-Apr-18 17:39 35.597022 -120.641746 324 34357ft 394kts
13-Apr-18 17:40 35.687126 -120.718086 324 34358ft 394kts
13-Apr-18 17:41 35.777818 -120.795398 323 34147ft 394kts
13-Apr-18 17:42 35.867353 -120.871665 323 31549ft 387kts
13-Apr-18 17:43 35.954207 -120.945925 323 29452ft 373kts
13-Apr-18 17:44 36.038481 -121.018269 323 27456ft 363kts
13-Apr-18 17:45 36.120649 -121.088848 323 25502ft 357kts
13-Apr-18 17:46 36.201644 -121.158770 323 23562ft 354kts
13-Apr-18 17:47 36.282274 -121.228718 323 21635ft 352kts
13-Apr-18 17:48 36.361203 -121.297560 322 20198ft 338kts
13-Apr-18 17:49 36.437268 -121.371123 322 17522ft 354kts
13-Apr-18 17:50 36.519172 -121.437287 337 15188ft 330kts
13-Apr-18 17:51 36.599859 -121.473076 340 13756ft 308kts
13-Apr-18 17:52 36.685359 -121.509466 341 11251ft 334kts
13-Apr-18 17:53 36.766485 -121.543772 342 10508ft 289kts
13-Apr-18 17:54 36.842066 -121.575885 342 9313ft 284kts
13-Apr-18 17:55 36.916425 -121.607588 342 8062ft 280kts
13-Apr-18 17:56 36.990102 -121.638825 342 6815ft 278kts
13-Apr-18 17:57 37.062474 -121.669624 342 5604ft 266kts
13-Apr-18 17:58 37.130243 -121.698548 340 4899ft 239kts
13-Apr-18 17:59 37.186606 -121.740500 322 4350ft 237kts
13-Apr-18 18:00 37.236838 -121.788206 322 3655ft 223kts
13-Apr-18 18:01 37.274733 -121.830151 319 2859ft 211kts
13-Apr-18 18:02 37.316962 -121.876523 319 1152ft 188kts
13-Apr-18 18:03 37.349949 -121.912828 322 261ft 136kts
13-Apr-18 18:04 37.368219 -121.932941 273 70ft 14kts
13-Apr-18 18:05 37.368301 -121.933045 47 70ft 17kts
13-Apr-18 18:06 37.370269 -121.930180 48 70ft 0kts
13-Apr-18 18:07 37.370269 -121.930180 48 70ft 0kts
13-Apr-18 18:08 37.370269 -121.930180 48 70ft 0kts
13-Apr-18 18:09 37.370269 -121.930180 48 70ft 0kts
13-Apr-18 18:10 37.370269 -121.930180 48 70ft 0kts

Navigation Log

Ident Type
Flight plan parsing failed, navigation log unavailable